sensor_id;sensor_type;location;lat;lon;timestamp;P1;P2;P0
14880;PMS7003;7533;51.278;12.588;2024-03-07T00:03:16;176.00;172.00;138.00
14880;PMS7003;7533;51.278;12.588;2024-03-07T00:08:34;176.00;171.00;136.67
14880;PMS7003;7533;51.278;12.588;2024-03-07T00:14:03;169.33;167.33;133.00
14880;PMS7003;7533;51.278;12.588;2024-03-07T00:19:33;168.75;163.75;132.25
14880;PMS7003;7533;51.278;12.588;2024-03-07T00:24:58;172.50;165.25;134.50
14880;PMS7003;7533;51.278;12.588;2024-03-07T00:30:27;165.25;162.00;131.75
14880;PMS7003;7533;51.278;12.588;2024-03-07T00:35:43;167.00;164.75;132.00
14880;PMS7003;7533;51.278;12.588;2024-03-07T00:41:15;167.75;161.25;130.00
14880;PMS7003;7533;51.278;12.588;2024-03-07T00:46:32;162.00;157.00;127.50
14880;PMS7003;7533;51.278;12.588;2024-03-07T00:52:01;168.75;164.50;130.00
14880;PMS7003;7533;51.278;12.588;2024-03-07T00:57:19;160.00;155.75;126.75
14880;PMS7003;7533;51.278;12.588;2024-03-07T01:02:48;159.00;155.25;123.00
14880;PMS7003;7533;51.278;12.588;2024-03-07T01:08:15;164.00;159.00;126.00
14880;PMS7003;7533;51.278;12.588;2024-03-07T01:13:46;150.00;147.33;118.67
14880;PMS7003;7533;51.278;12.588;2024-03-07T01:19:15;154.33;151.33;119.00
14880;PMS7003;7533;51.278;12.588;2024-03-07T01:24:32;156.67;148.67;118.33
14880;PMS7003;7533;51.278;12.588;2024-03-07T01:30:03;157.00;151.00;120.33
14880;PMS7003;7533;51.278;12.588;2024-03-07T01:35:23;150.33;146.67;118.00
14880;PMS7003;7533;51.278;12.588;2024-03-07T01:40:53;147.67;145.33;115.67
14880;PMS7003;7533;51.278;12.588;2024-03-07T01:46:10;148.67;144.00;115.67
14880;PMS7003;7533;51.278;12.588;2024-03-07T01:51:41;151.00;146.00;116.00
14880;PMS7003;7533;51.278;12.588;2024-03-07T01:56:57;149.33;146.00;114.00
14880;PMS7003;7533;51.278;12.588;2024-03-07T02:02:29;147.00;141.33;113.67
14880;PMS7003;7533;51.278;12.588;2024-03-07T02:07:45;144.67;140.33;111.67
14880;PMS7003;7533;51.278;12.588;2024-03-07T02:13:15;144.33;140.00;113.67
14880;PMS7003;7533;51.278;12.588;2024-03-07T02:18:46;144.67;139.67;113.00
14880;PMS7003;7533;51.278;12.588;2024-03-07T02:24:04;145.33;141.00;112.67
14880;PMS7003;7533;51.278;12.588;2024-03-07T02:29:36;147.00;140.33;107.00
14880;PMS7003;7533;51.278;12.588;2024-03-07T02:34:52;142.67;137.00;108.00
14880;PMS7003;7533;51.278;12.588;2024-03-07T02:40:23;136.67;134.33;106.00
14880;PMS7003;7533;51.278;12.588;2024-03-07T02:51:41;136.00;131.67;107.67
14880;PMS7003;7533;51.278;12.588;2024-03-07T02:56:58;138.00;132.67;105.67
14880;PMS7003;7533;51.278;12.588;2024-03-07T03:02:28;133.00;131.00;103.50
14880;PMS7003;7533;51.278;12.588;2024-03-07T03:07:44;126.00;123.80;100.40
14880;PMS7003;7533;51.278;12.588;2024-03-07T03:13:17;132.67;129.00;105.00
14880;PMS7003;7533;51.278;12.588;2024-03-07T03:18:49;132.40;126.60;100.60
14880;PMS7003;7533;51.278;12.588;2024-03-07T03:24:05;132.00;128.25;102.75
14880;PMS7003;7533;51.278;12.588;2024-03-07T03:29:36;129.60;124.80;98.80
14880;PMS7003;7533;51.278;12.588;2024-03-07T03:35:08;129.40;126.40;98.20
14880;PMS7003;7533;51.278;12.588;2024-03-07T03:40:38;130.20;127.40;98.80
14880;PMS7003;7533;51.278;12.588;2024-03-07T03:45:55;123.20;119.00;95.60
14880;PMS7003;7533;51.278;12.588;2024-03-07T03:51:25;122.00;117.60;94.00
14880;PMS7003;7533;51.278;12.588;2024-03-07T03:56:41;122.00;116.60;93.40
14880;PMS7003;7533;51.278;12.588;2024-03-07T04:02:12;122.40;116.20;91.80
14880;PMS7003;7533;51.278;12.588;2024-03-07T04:07:28;120.00;117.60;93.00
14880;PMS7003;7533;51.278;12.588;2024-03-07T04:12:58;115.80;113.60;90.20
14880;PMS7003;7533;51.278;12.588;2024-03-07T04:18:15;113.00;109.20;87.20
14880;PMS7003;7533;51.278;12.588;2024-03-07T04:23:45;115.20;112.80;88.00
14880;PMS7003;7533;51.278;12.588;2024-03-07T04:29:01;114.80;111.20;87.40
14880;PMS7003;7533;51.278;12.588;2024-03-07T04:34:33;106.60;105.00;83.80
14880;PMS7003;7533;51.278;12.588;2024-03-07T04:39:51;111.20;103.40;85.00
14880;PMS7003;7533;51.278;12.588;2024-03-07T04:45:21;104.60;103.40;82.00
14880;PMS7003;7533;51.278;12.588;2024-03-07T04:50:38;106.00;100.60;81.20
14880;PMS7003;7533;51.278;12.588;2024-03-07T04:56:08;109.20;104.20;79.60
14880;PMS7003;7533;51.278;12.588;2024-03-07T05:01:24;105.60;101.20;78.80
14880;PMS7003;7533;51.278;12.588;2024-03-07T05:06:56;105.00;99.80;79.60
14880;PMS7003;7533;51.278;12.588;2024-03-07T05:12:19;99.40;97.60;78.20
14880;PMS7003;7533;51.278;12.588;2024-03-07T05:17:49;99.40;95.20;75.40
14880;PMS7003;7533;51.278;12.588;2024-03-07T05:23:07;98.40;96.80;75.00
14880;PMS7003;7533;51.278;12.588;2024-03-07T05:28:36;98.20;95.00;73.20
14880;PMS7003;7533;51.278;12.588;2024-03-07T05:33:52;101.40;94.80;74.80
14880;PMS7003;7533;51.278;12.588;2024-03-07T05:39:24;98.20;94.80;73.40
14880;PMS7003;7533;51.278;12.588;2024-03-07T05:44:40;97.40;94.20;74.40
14880;PMS7003;7533;51.278;12.588;2024-03-07T05:50:10;92.60;90.20;71.60
14880;PMS7003;7533;51.278;12.588;2024-03-07T05:55:29;91.20;90.20;71.40
14880;PMS7003;7533;51.278;12.588;2024-03-07T06:00:58;93.80;90.80;72.20
14880;PMS7003;7533;51.278;12.588;2024-03-07T06:06:14;95.80;90.20;72.80
14880;PMS7003;7533;51.278;12.588;2024-03-07T06:11:47;89.20;85.80;69.00
14880;PMS7003;7533;51.278;12.588;2024-03-07T06:17:04;89.20;85.80;67.80
14880;PMS7003;7533;51.278;12.588;2024-03-07T06:22:34;89.40;88.20;68.20
14880;PMS7003;7533;51.278;12.588;2024-03-07T06:27:51;83.60;80.00;65.00
14880;PMS7003;7533;51.278;12.588;2024-03-07T06:33:20;89.20;85.00;67.60
14880;PMS7003;7533;51.278;12.588;2024-03-07T06:38:37;83.80;82.00;64.20
14880;PMS7003;7533;51.278;12.588;2024-03-07T06:44:08;85.80;83.40;65.20
14880;PMS7003;7533;51.278;12.588;2024-03-07T06:49:30;81.60;79.40;63.00
14880;PMS7003;7533;51.278;12.588;2024-03-07T06:55:02;80.80;77.80;61.40
14880;PMS7003;7533;51.278;12.588;2024-03-07T07:00:20;80.00;76.60;60.60
14880;PMS7003;7533;51.278;12.588;2024-03-07T07:05:49;82.00;79.40;61.00
14880;PMS7003;7533;51.278;12.588;2024-03-07T07:11:06;80.20;78.20;61.00
14880;PMS7003;7533;51.278;12.588;2024-03-07T07:16:37;80.40;79.20;60.20
14880;PMS7003;7533;51.278;12.588;2024-03-07T07:22:00;79.60;77.00;61.60
14880;PMS7003;7533;51.278;12.588;2024-03-07T07:27:31;75.80;72.20;59.40
14880;PMS7003;7533;51.278;12.588;2024-03-07T07:32:49;77.00;73.80;59.00
14880;PMS7003;7533;51.278;12.588;2024-03-07T07:38:20;75.80;75.00;59.60
14880;PMS7003;7533;51.278;12.588;2024-03-07T07:43:36;78.80;76.00;59.00
14880;PMS7003;7533;51.278;12.588;2024-03-07T07:49:07;77.00;72.60;58.40
14880;PMS7003;7533;51.278;12.588;2024-03-07T07:54:23;72.80;68.40;53.80
14880;PMS7003;7533;51.278;12.588;2024-03-07T07:59:53;36.00;32.80;21.80
14880;PMS7003;7533;51.278;12.588;2024-03-07T08:05:13;36.40;29.80;19.80
14880;PMS7003;7533;51.278;12.588;2024-03-07T08:10:44;32.00;27.20;19.00
14880;PMS7003;7533;51.278;12.588;2024-03-07T08:16:07;28.80;27.80;19.00
14880;PMS7003;7533;51.278;12.588;2024-03-07T08:21:38;30.60;25.80;16.00
14880;PMS7003;7533;51.278;12.588;2024-03-07T08:26:54;27.60;26.40;18.00
14880;PMS7003;7533;51.278;12.588;2024-03-07T08:32:25;47.00;38.20;24.00
14880;PMS7003;7533;51.278;12.588;2024-03-07T08:37:43;66.00;51.40;32.00
14880;PMS7003;7533;51.278;12.588;2024-03-07T08:43:15;119.20;101.00;58.00
14880;PMS7003;7533;51.278;12.588;2024-03-07T08:48:31;130.40;110.80;62.60
14880;PMS7003;7533;51.278;12.588;2024-03-07T08:54:02;167.00;142.60;77.20
14880;PMS7003;7533;51.278;12.588;2024-03-07T08:59:19;199.00;169.20;85.80
14880;PMS7003;7533;51.278;12.588;2024-03-07T09:04:49;209.20;176.80;97.60
14880;PMS7003;7533;51.278;12.588;2024-03-07T09:10:07;237.67;194.67;103.33
14880;PMS7003;7533;51.278;12.588;2024-03-07T09:15:37;257.33;220.00;109.33
14880;PMS7003;7533;51.278;12.588;2024-03-07T09:21:00;272.00;231.67;113.00
14880;PMS7003;7533;51.278;12.588;2024-03-07T09:26:31;290.33;236.00;117.00
14880;PMS7003;7533;51.278;12.588;2024-03-07T09:31:48;284.33;229.33;112.33
14880;PMS7003;7533;51.278;12.588;2024-03-07T09:37:19;250.00;209.67;102.67
14880;PMS7003;7533;51.278;12.588;2024-03-07T09:42:40;242.33;197.00;98.67
14880;PMS7003;7533;51.278;12.588;2024-03-07T09:48:14;230.80;191.40;95.80
14880;PMS7003;7533;51.278;12.588;2024-03-07T09:53:31;221.00;183.40;92.40
14880;PMS7003;7533;51.278;12.588;2024-03-07T09:59:04;205.40;172.20;90.80
14880;PMS7003;7533;51.278;12.588;2024-03-07T10:04:23;204.00;168.40;85.20
14880;PMS7003;7533;51.278;12.588;2024-03-07T10:09:58;202.00;170.00;82.60
14880;PMS7003;7533;51.278;12.588;2024-03-07T10:15:34;192.60;156.40;80.40
14880;PMS7003;7533;51.278;12.588;2024-03-07T10:20:50;177.60;152.80;78.80
14880;PMS7003;7533;51.278;12.588;2024-03-07T10:26:25;183.40;148.40;75.80
14880;PMS7003;7533;51.278;12.588;2024-03-07T10:31:43;169.40;141.00;73.20
14880;PMS7003;7533;51.278;12.588;2024-03-07T10:37:19;161.60;140.20;72.60
14880;PMS7003;7533;51.278;12.588;2024-03-07T10:42:36;157.40;130.60;67.60
14880;PMS7003;7533;51.278;12.588;2024-03-07T10:48:09;149.80;124.80;65.80
14880;PMS7003;7533;51.278;12.588;2024-03-07T10:53:39;133.20;110.40;56.40
14880;PMS7003;7533;51.278;12.588;2024-03-07T10:59:16;123.00;102.20;55.00
14880;PMS7003;7533;51.278;12.588;2024-03-07T11:04:35;121.20;102.20;50.80
14880;PMS7003;7533;51.278;12.588;2024-03-07T11:10:04;117.60;97.00;51.40
14880;PMS7003;7533;51.278;12.588;2024-03-07T11:15:32;113.40;94.80;51.20
14880;PMS7003;7533;51.278;12.588;2024-03-07T11:21:05;109.20;89.00;48.20
14880;PMS7003;7533;51.278;12.588;2024-03-07T11:26:21;104.40;86.60;43.40
14880;PMS7003;7533;51.278;12.588;2024-03-07T11:31:53;105.40;94.60;47.80
14880;PMS7003;7533;51.278;12.588;2024-03-07T11:37:11;97.40;84.40;45.40
14880;PMS7003;7533;51.278;12.588;2024-03-07T11:42:47;104.00;88.60;45.60
14880;PMS7003;7533;51.278;12.588;2024-03-07T11:48:11;92.60;80.00;43.40
14880;PMS7003;7533;51.278;12.588;2024-03-07T11:53:43;91.40;79.20;43.20
14880;PMS7003;7533;51.278;12.588;2024-03-07T11:59:01;95.00;77.80;41.00
14880;PMS7003;7533;51.278;12.588;2024-03-07T12:04:34;96.40;77.80;42.20
14880;PMS7003;7533;51.278;12.588;2024-03-07T12:09:52;90.40;77.60;41.60
14880;PMS7003;7533;51.278;12.588;2024-03-07T12:15:21;86.80;71.20;41.00
14880;PMS7003;7533;51.278;12.588;2024-03-07T12:20:53;91.20;74.60;40.00
14880;PMS7003;7533;51.278;12.588;2024-03-07T12:26:19;86.20;73.40;40.20
14880;PMS7003;7533;51.278;12.588;2024-03-07T12:31:51;88.60;73.00;38.40
14880;PMS7003;7533;51.278;12.588;2024-03-07T12:37:09;83.60;72.60;40.00
14880;PMS7003;7533;51.278;12.588;2024-03-07T12:42:40;80.40;69.20;38.60
14880;PMS7003;7533;51.278;12.588;2024-03-07T12:47:58;79.20;65.40;36.00
14880;PMS7003;7533;51.278;12.588;2024-03-07T12:53:29;81.20;70.00;36.40
14880;PMS7003;7533;51.278;12.588;2024-03-07T12:58:47;77.20;67.40;38.60
14880;PMS7003;7533;51.278;12.588;2024-03-07T13:04:18;78.00;66.80;36.20
14880;PMS7003;7533;51.278;12.588;2024-03-07T13:09:41;79.20;64.20;36.20
14880;PMS7003;7533;51.278;12.588;2024-03-07T13:15:12;76.80;66.00;35.20
14880;PMS7003;7533;51.278;12.588;2024-03-07T13:20:44;74.20;62.00;37.00
14880;PMS7003;7533;51.278;12.588;2024-03-07T13:26:01;75.40;67.40;34.20
14880;PMS7003;7533;51.278;12.588;2024-03-07T13:31:39;74.80;63.60;35.60
14880;PMS7003;7533;51.278;12.588;2024-03-07T13:36:57;73.40;63.60;33.20
14880;PMS7003;7533;51.278;12.588;2024-03-07T13:42:27;72.20;58.20;31.80
14880;PMS7003;7533;51.278;12.588;2024-03-07T13:47:44;74.40;60.60;33.00
14880;PMS7003;7533;51.278;12.588;2024-03-07T13:53:14;70.40;54.40;32.80
14880;PMS7003;7533;51.278;12.588;2024-03-07T13:58:46;69.80;54.40;32.20
14880;PMS7003;7533;51.278;12.588;2024-03-07T14:04:45;67.60;52.80;32.20
14880;PMS7003;7533;51.278;12.588;2024-03-07T14:10:44;72.20;55.00;32.00
14880;PMS7003;7533;51.278;12.588;2024-03-07T14:16:43;68.20;52.40;31.20
14880;PMS7003;7533;51.278;12.588;2024-03-07T14:22:39;65.40;50.20;31.20
14880;PMS7003;7533;51.278;12.588;2024-03-07T14:28:15;67.00;52.00;31.00
14880;PMS7003;7533;51.278;12.588;2024-03-07T14:34:01;67.20;50.40;30.40
14880;PMS7003;7533;51.278;12.588;2024-03-07T14:39:28;64.40;50.20;29.40
14880;PMS7003;7533;51.278;12.588;2024-03-07T14:45:01;66.00;50.20;29.80
14880;PMS7003;7533;51.278;12.588;2024-03-07T14:50:22;67.40;50.40;30.20
14880;PMS7003;7533;51.278;12.588;2024-03-07T14:55:58;65.60;50.00;30.20
14880;PMS7003;7533;51.278;12.588;2024-03-07T15:01:15;66.00;50.20;30.20
14880;PMS7003;7533;51.278;12.588;2024-03-07T15:06:48;62.40;48.80;28.00
14880;PMS7003;7533;51.278;12.588;2024-03-07T15:12:08;64.80;47.40;28.40
14880;PMS7003;7533;51.278;12.588;2024-03-07T15:17:38;61.00;46.00;28.20
14880;PMS7003;7533;51.278;12.588;2024-03-07T15:22:55;66.60;49.20;29.20
14880;PMS7003;7533;51.278;12.588;2024-03-07T15:28:26;61.60;48.20;29.20
14880;PMS7003;7533;51.278;12.588;2024-03-07T15:33:51;62.80;48.00;28.00
14880;PMS7003;7533;51.278;12.588;2024-03-07T15:39:21;60.40;48.00;28.60
14880;PMS7003;7533;51.278;12.588;2024-03-07T15:44:43;59.60;45.00;28.20
14880;PMS7003;7533;51.278;12.588;2024-03-07T15:50:13;64.00;49.80;29.00
14880;PMS7003;7533;51.278;12.588;2024-03-07T15:55:29;67.80;53.60;31.40
14880;PMS7003;7533;51.278;12.588;2024-03-07T16:01:01;72.00;58.00;33.00
14880;PMS7003;7533;51.278;12.588;2024-03-07T16:06:24;74.00;61.60;34.80
14880;PMS7003;7533;51.278;12.588;2024-03-07T16:11:54;81.00;68.60;36.80
14880;PMS7003;7533;51.278;12.588;2024-03-07T16:17:12;74.20;61.00;34.80
14880;PMS7003;7533;51.278;12.588;2024-03-07T16:22:44;73.60;60.60;35.20
14880;PMS7003;7533;51.278;12.588;2024-03-07T16:28:01;75.60;63.40;35.20
14880;PMS7003;7533;51.278;12.588;2024-03-07T16:33:34;74.80;62.00;33.60
14880;PMS7003;7533;51.278;12.588;2024-03-07T16:38:50;73.20;61.40;34.40
14880;PMS7003;7533;51.278;12.588;2024-03-07T16:44:20;74.80;59.40;33.40
14880;PMS7003;7533;51.278;12.588;2024-03-07T16:49:38;67.80;56.00;33.00
14880;PMS7003;7533;51.278;12.588;2024-03-07T16:55:11;73.40;57.00;32.40
14880;PMS7003;7533;51.278;12.588;2024-03-07T17:00:27;70.60;54.40;31.80
14880;PMS7003;7533;51.278;12.588;2024-03-07T17:06:02;69.00;55.00;32.60
14880;PMS7003;7533;51.278;12.588;2024-03-07T17:11:24;67.80;53.60;31.20
14880;PMS7003;7533;51.278;12.588;2024-03-07T17:16:54;70.00;51.20;31.80
14880;PMS7003;7533;51.278;12.588;2024-03-07T17:22:26;66.60;50.40;30.00
14880;PMS7003;7533;51.278;12.588;2024-03-07T17:27:49;66.60;51.80;31.60
14880;PMS7003;7533;51.278;12.588;2024-03-07T17:33:21;65.80;49.40;30.00
14880;PMS7003;7533;51.278;12.588;2024-03-07T17:38:40;63.80;49.20;30.60
14880;PMS7003;7533;51.278;12.588;2024-03-07T17:44:09;64.80;50.80;30.00
14880;PMS7003;7533;51.278;12.588;2024-03-07T17:49:39;62.40;48.40;30.60
14880;PMS7003;7533;51.278;12.588;2024-03-07T17:54:57;67.80;48.00;29.80
14880;PMS7003;7533;51.278;12.588;2024-03-07T18:00:29;62.00;47.00;28.80
14880;PMS7003;7533;51.278;12.588;2024-03-07T18:05:47;59.40;45.80;28.60
14880;PMS7003;7533;51.278;12.588;2024-03-07T18:11:18;58.80;44.60;27.20
14880;PMS7003;7533;51.278;12.588;2024-03-07T18:16:42;57.60;44.00;26.40
14880;PMS7003;7533;51.278;12.588;2024-03-07T18:22:12;57.60;45.40;26.60
14880;PMS7003;7533;51.278;12.588;2024-03-07T18:27:31;59.80;44.40;26.40
14880;PMS7003;7533;51.278;12.588;2024-03-07T18:33:02;59.20;46.00;27.80
14880;PMS7003;7533;51.278;12.588;2024-03-07T18:38:20;58.40;45.60;28.60
14880;PMS7003;7533;51.278;12.588;2024-03-07T18:43:51;56.40;46.00;28.20
14880;PMS7003;7533;51.278;12.588;2024-03-07T18:49:16;53.20;44.20;28.80
14880;PMS7003;7533;51.278;12.588;2024-03-07T18:54:46;55.00;43.20;27.40
14880;PMS7003;7533;51.278;12.588;2024-03-07T19:00:04;53.80;41.80;27.20
14880;PMS7003;7533;51.278;12.588;2024-03-07T19:05:49;55.40;43.60;28.00
14880;PMS7003;7533;51.278;12.588;2024-03-07T19:11:07;53.20;43.80;27.40
14880;PMS7003;7533;51.278;12.588;2024-03-07T19:16:38;54.80;42.20;27.40
14880;PMS7003;7533;51.278;12.588;2024-03-07T19:22:08;54.00;42.60;26.60
14880;PMS7003;7533;51.278;12.588;2024-03-07T19:27:31;54.00;41.80;26.80
14880;PMS7003;7533;51.278;12.588;2024-03-07T19:33:05;50.00;40.40;26.40
14880;PMS7003;7533;51.278;12.588;2024-03-07T19:38:30;52.60;41.00;26.00
14880;PMS7003;7533;51.278;12.588;2024-03-07T19:44:00;49.40;40.20;26.20
14880;PMS7003;7533;51.278;12.588;2024-03-07T19:49:17;47.40;38.20;25.20
14880;PMS7003;7533;51.278;12.588;2024-03-07T19:54:47;45.00;37.80;25.40
14880;PMS7003;7533;51.278;12.588;2024-03-07T20:00:04;46.60;38.80;25.20
14880;PMS7003;7533;51.278;12.588;2024-03-07T20:05:38;48.20;37.60;26.00
14880;PMS7003;7533;51.278;12.588;2024-03-07T20:11:01;48.40;38.20;25.20
14880;PMS7003;7533;51.278;12.588;2024-03-07T20:16:37;48.00;38.40;25.00
14880;PMS7003;7533;51.278;12.588;2024-03-07T20:22:08;48.80;39.20;26.00
14880;PMS7003;7533;51.278;12.588;2024-03-07T20:27:24;46.80;39.60;25.20
14880;PMS7003;7533;51.278;12.588;2024-03-07T20:32:56;47.80;38.80;26.00
14880;PMS7003;7533;51.278;12.588;2024-03-07T20:38:13;49.60;39.00;26.20
14880;PMS7003;7533;51.278;12.588;2024-03-07T20:43:44;48.40;40.20;27.40
14880;PMS7003;7533;51.278;12.588;2024-03-07T20:49:01;47.00;39.40;26.20
14880;PMS7003;7533;51.278;12.588;2024-03-07T20:54:32;51.20;42.20;28.00
14880;PMS7003;7533;51.278;12.588;2024-03-07T20:59:57;52.60;42.60;28.60
14880;PMS7003;7533;51.278;12.588;2024-03-07T21:05:29;51.20;41.20;28.80
14880;PMS7003;7533;51.278;12.588;2024-03-07T21:10:47;54.20;42.40;30.40
14880;PMS7003;7533;51.278;12.588;2024-03-07T21:16:17;58.40;45.80;32.40
14880;PMS7003;7533;51.278;12.588;2024-03-07T21:21:49;56.20;46.40;33.00
14880;PMS7003;7533;51.278;12.588;2024-03-07T21:27:07;69.00;59.80;48.20
14880;PMS7003;7533;51.278;12.588;2024-03-07T21:32:36;75.60;69.80;56.20
14880;PMS7003;7533;51.278;12.588;2024-03-07T21:37:52;73.80;69.20;55.60
14880;PMS7003;7533;51.278;12.588;2024-03-07T21:43:24;74.40;68.20;56.80
14880;PMS7003;7533;51.278;12.588;2024-03-07T21:48:40;72.00;64.80;53.20
14880;PMS7003;7533;51.278;12.588;2024-03-07T21:54:10;72.80;64.20;52.60
14880;PMS7003;7533;51.278;12.588;2024-03-07T21:59:28;72.60;64.00;52.80
14880;PMS7003;7533;51.278;12.588;2024-03-07T22:04:57;73.20;66.80;52.80
14880;PMS7003;7533;51.278;12.588;2024-03-07T22:10:15;71.20;63.40;52.60
14880;PMS7003;7533;51.278;12.588;2024-03-07T22:15:47;70.40;63.80;52.80
14880;PMS7003;7533;51.278;12.588;2024-03-07T22:21:17;72.60;64.20;54.60
14880;PMS7003;7533;51.278;12.588;2024-03-07T22:26:33;71.60;63.60;52.80
14880;PMS7003;7533;51.278;12.588;2024-03-07T22:32:05;70.20;63.00;51.80
14880;PMS7003;7533;51.278;12.588;2024-03-07T22:37:21;73.00;65.20;54.40
14880;PMS7003;7533;51.278;12.588;2024-03-07T22:42:51;70.40;63.00;52.80
14880;PMS7003;7533;51.278;12.588;2024-03-07T22:48:09;68.40;61.20;51.00
14880;PMS7003;7533;51.278;12.588;2024-03-07T22:53:38;70.00;61.20;50.60
14880;PMS7003;7533;51.278;12.588;2024-03-07T22:58:54;71.00;63.20;50.80
14880;PMS7003;7533;51.278;12.588;2024-03-07T23:04:26;71.60;62.40;50.60
14880;PMS7003;7533;51.278;12.588;2024-03-07T23:09:43;72.20;64.60;52.60
14880;PMS7003;7533;51.278;12.588;2024-03-07T23:15:14;71.00;60.80;50.60
14880;PMS7003;7533;51.278;12.588;2024-03-07T23:20:32;71.00;61.60;50.80
14880;PMS7003;7533;51.278;12.588;2024-03-07T23:26:03;67.00;58.60;49.80
14880;PMS7003;7533;51.278;12.588;2024-03-07T23:31:20;71.60;63.80;52.00
14880;PMS7003;7533;51.278;12.588;2024-03-07T23:36:53;70.20;60.20;50.00
14880;PMS7003;7533;51.278;12.588;2024-03-07T23:42:16;69.80;61.80;50.80
14880;PMS7003;7533;51.278;12.588;2024-03-07T23:47:46;69.40;62.60;50.80
14880;PMS7003;7533;51.278;12.588;2024-03-07T23:53:03;69.60;61.20;49.60
14880;PMS7003;7533;51.278;12.588;2024-03-07T23:58:33;68.80;60.80;48.40
